createdAt,value
2018-12-21T00:01:01.431Z,3.87
2018-12-21T00:03:34.853Z,3.65
2018-12-21T00:06:08.630Z,3.60
2018-12-21T00:08:42.718Z,3.17
2018-12-21T00:11:16.755Z,2.90
2018-12-21T00:13:50.385Z,3.40
2018-12-21T00:16:23.331Z,2.90
2018-12-21T00:18:56.537Z,2.90
2018-12-21T00:21:29.788Z,3.23
2018-12-21T00:24:03.356Z,3.07
2018-12-21T00:26:36.148Z,2.90
2018-12-21T00:29:08.774Z,3.00
2018-12-21T00:31:47.184Z,2.97
2018-12-21T00:34:25.214Z,2.77
2018-12-21T00:37:03.565Z,3.00
2018-12-21T00:39:42.079Z,3.80
2018-12-21T00:42:34.159Z,2.93
2018-12-21T00:45:14.897Z,3.17
2018-12-21T00:47:49.358Z,2.87
2018-12-21T00:53:33.247Z,2.40
2018-12-21T00:56:06.622Z,2.77
2018-12-21T00:58:42.289Z,2.67
2018-12-21T01:01:14.886Z,2.60
2018-12-21T01:03:48.053Z,2.30
2018-12-21T01:06:23.479Z,3.40
2018-12-21T01:08:57.361Z,3.20
2018-12-21T01:11:30.924Z,2.83
2018-12-21T01:14:03.963Z,2.43
2018-12-21T01:16:36.653Z,2.93
2018-12-21T01:19:11.069Z,3.30
2018-12-21T01:21:50.694Z,3.00
2018-12-21T01:24:23.456Z,2.67
2018-12-21T01:26:55.964Z,2.57
2018-12-21T01:29:29.040Z,2.50
2018-12-21T01:32:01.544Z,2.90
2018-12-21T01:34:34.157Z,2.90
2018-12-21T01:37:07.353Z,2.60
2018-12-21T01:39:41.757Z,2.70
2018-12-21T01:42:15.127Z,2.83
2018-12-21T01:44:48.324Z,2.50
2018-12-21T01:47:20.940Z,2.30
2018-12-21T01:49:53.907Z,2.90
2018-12-21T01:52:28.955Z,3.10
2018-12-21T01:55:01.704Z,2.53
2018-12-21T01:57:34.263Z,2.70
2018-12-21T02:00:08.960Z,2.60
2018-12-21T02:02:41.605Z,2.37
2018-12-21T02:05:15.636Z,2.57
2018-12-21T02:07:49.639Z,2.53
2018-12-21T02:10:22.689Z,2.73
2018-12-21T02:12:56.029Z,2.77
2018-12-21T02:15:31.471Z,2.23
2018-12-21T02:18:04.071Z,2.33
2018-12-21T02:20:36.754Z,2.17
2018-12-21T02:23:11.060Z,2.90
2018-12-21T02:25:44.624Z,2.30
2018-12-21T02:28:17.187Z,2.87
2018-12-21T02:30:52.948Z,3.00
2018-12-21T02:33:26.211Z,2.50
2018-12-21T02:35:59.732Z,2.33
2018-12-21T02:38:34.756Z,2.27
2018-12-21T02:41:07.364Z,2.17
2018-12-21T02:43:48.029Z,2.00
2018-12-21T02:46:20.551Z,2.00
2018-12-21T02:48:54.101Z,1.87
2018-12-21T02:51:28.078Z,2.30
2018-12-21T02:54:00.632Z,1.90
2018-12-21T02:56:33.926Z,2.55
2018-12-21T02:59:07.477Z,2.00
2018-12-21T03:01:40.057Z,2.10
2018-12-21T03:04:12.642Z,1.93
2018-12-21T03:06:45.684Z,1.57
2018-12-21T03:09:18.201Z,1.70
2018-12-21T03:11:50.799Z,1.73
2018-12-21T03:14:24.837Z,2.03
2018-12-21T03:16:57.633Z,1.93
2018-12-21T03:19:31.415Z,1.93
2018-12-21T03:22:14.248Z,2.10
2018-12-21T03:24:47.612Z,1.70
2018-12-21T03:27:20.360Z,1.70
2018-12-21T03:29:54.352Z,2.57
2018-12-21T03:32:27.086Z,2.20
2018-12-21T03:35:00.682Z,1.87
2018-12-21T03:37:33.899Z,2.10
2018-12-21T03:40:07.619Z,2.07
2018-12-21T03:42:41.560Z,2.10
2018-12-21T03:45:17.226Z,2.30
2018-12-21T03:47:49.763Z,2.43
2018-12-21T03:50:22.445Z,1.87
2018-12-21T03:52:55.495Z,2.10
2018-12-21T03:55:27.996Z,2.12
2018-12-21T03:58:01.907Z,2.60
2018-12-21T04:00:36.113Z,2.00
2018-12-21T04:03:09.727Z,1.70
2018-12-21T04:05:42.244Z,1.87
2018-12-21T04:08:15.285Z,1.87
2018-12-21T04:10:47.821Z,2.30
2018-12-21T04:13:20.443Z,1.73
2018-12-21T04:15:55.625Z,1.87
2018-12-21T04:18:28.256Z,1.80
2018-12-21T04:21:02.431Z,1.67
2018-12-21T04:23:35.398Z,1.87
2018-12-21T04:26:08.235Z,1.60
2018-12-21T04:28:42.579Z,1.73
2018-12-21T04:31:15.457Z,1.73
2018-12-21T04:33:48.847Z,1.70
2018-12-21T04:36:22.591Z,2.03
2018-12-21T04:38:56.357Z,2.00
2018-12-21T04:41:29.570Z,2.47
2018-12-21T04:44:02.892Z,2.23
2018-12-21T04:46:35.818Z,2.53
2018-12-21T04:49:09.589Z,6.20
2018-12-21T04:51:42.188Z,2.63
2018-12-21T04:54:15.476Z,3.10
2018-12-21T04:56:48.404Z,3.00
2018-12-21T04:59:21.726Z,3.33
2018-12-21T05:01:56.806Z,3.12
2018-12-21T05:04:29.499Z,3.20
2018-12-21T05:07:02.222Z,3.63
2018-12-21T05:09:36.141Z,3.57
2018-12-21T05:12:08.789Z,3.57
2018-12-21T05:14:41.939Z,3.40
2018-12-21T05:17:16.139Z,3.57
2018-12-21T05:19:49.258Z,3.30
2018-12-21T05:22:21.971Z,3.00
2018-12-21T05:24:54.823Z,2.87
2018-12-21T05:27:27.428Z,2.50
2018-12-21T05:30:00.047Z,2.53
2018-12-21T05:32:34.071Z,2.20
2018-12-21T05:35:10.514Z,2.20
2018-12-21T05:37:44.527Z,2.00
2018-12-21T05:40:17.125Z,2.10
2018-12-21T05:42:50.089Z,2.10
2018-12-21T05:45:22.624Z,2.17
2018-12-21T05:47:56.217Z,2.00
2018-12-21T05:50:28.827Z,2.12
2018-12-21T05:53:03.289Z,1.90
2018-12-21T05:55:36.002Z,2.00
2018-12-21T05:58:08.793Z,1.70
2018-12-21T06:00:43.707Z,1.53
2018-12-21T06:03:16.312Z,1.50
2018-12-21T06:05:49.035Z,1.67
2018-12-21T06:08:23.101Z,2.63
2018-12-21T06:10:55.768Z,1.37
2018-12-21T06:13:28.668Z,1.10
2018-12-21T06:16:01.562Z,0.93
2018-12-21T06:18:34.205Z,1.00
2018-12-21T06:21:06.940Z,1.20
2018-12-21T06:23:40.575Z,0.93
2018-12-21T06:26:14.829Z,1.00
2018-12-21T06:28:47.963Z,0.73
2018-12-21T06:31:23.386Z,0.80
2018-12-21T06:33:55.995Z,0.90
2018-12-21T06:36:28.592Z,0.80
2018-12-21T06:39:04.750Z,0.90
2018-12-21T06:41:40.115Z,0.90
2018-12-21T06:44:13.739Z,0.80
2018-12-21T06:46:48.501Z,0.80
2018-12-21T06:49:22.161Z,0.73
2018-12-21T06:51:54.899Z,0.80
2018-12-21T06:54:30.533Z,1.00
2018-12-21T06:57:03.108Z,0.77
2018-12-21T06:59:35.667Z,1.50
2018-12-21T07:02:09.344Z,0.90
2018-12-21T07:04:41.863Z,0.80
2018-12-21T07:07:16.396Z,1.10
2018-12-21T07:09:55.110Z,0.80
2018-12-21T07:12:33.556Z,0.80
2018-12-21T07:15:08.867Z,0.83
2018-12-21T07:17:42.202Z,1.10
2018-12-21T07:20:15.168Z,1.10
2018-12-21T07:22:47.974Z,0.80
2018-12-21T07:25:20.666Z,1.03
2018-12-21T07:27:53.893Z,1.03
2018-12-21T07:30:27.410Z,1.23
2018-12-21T07:33:00.204Z,0.90
2018-12-21T07:35:33.676Z,1.07
2018-12-21T07:38:06.669Z,0.93
2018-12-21T07:40:39.744Z,0.87
2018-12-21T07:43:13.235Z,1.10
2018-12-21T07:45:50.828Z,1.07
2018-12-21T07:48:28.218Z,0.97
2018-12-21T07:51:05.141Z,0.90
2018-12-21T07:53:38.201Z,0.90
2018-12-21T07:56:12.721Z,0.90
2018-12-21T07:58:45.720Z,0.90
2018-12-21T08:01:20.252Z,1.00
2018-12-21T08:03:53.692Z,0.90
2018-12-21T08:06:30.040Z,1.30
2018-12-21T08:09:04.328Z,1.20
2018-12-21T08:11:38.845Z,1.00
2018-12-21T08:14:12.699Z,1.13
2018-12-21T08:16:45.545Z,0.97
2018-12-21T08:19:19.187Z,1.00
2018-12-21T08:21:53.340Z,1.00
2018-12-21T08:24:26.661Z,1.10
2018-12-21T08:27:01.716Z,1.10
2018-12-21T08:29:34.825Z,1.00
2018-12-21T08:32:07.765Z,0.90
2018-12-21T08:34:47.206Z,0.73
2018-12-21T08:37:20.085Z,0.80
2018-12-21T08:39:53.760Z,1.03
2018-12-21T08:42:26.713Z,0.83
2018-12-21T08:44:59.740Z,0.90
2018-12-21T08:47:34.690Z,0.97
2018-12-21T08:50:10.991Z,0.90
2018-12-21T08:52:43.792Z,0.70
2018-12-21T08:55:17.280Z,1.00
2018-12-21T08:57:51.240Z,1.00
2018-12-21T09:00:25.999Z,1.30
2018-12-21T09:02:59.614Z,1.00
2018-12-21T09:05:35.081Z,0.97
2018-12-21T09:08:09.639Z,0.80
2018-12-21T09:10:44.779Z,1.57
2018-12-21T09:13:21.888Z,0.67
2018-12-21T09:15:56.561Z,0.87
2018-12-21T09:18:31.510Z,0.80
2018-12-21T09:21:05.665Z,1.20
2018-12-21T09:23:39.372Z,1.20
2018-12-21T09:26:14.920Z,0.80
2018-12-21T09:28:47.805Z,1.00
2018-12-21T09:31:21.734Z,1.00
2018-12-21T09:33:56.970Z,0.77
2018-12-21T09:36:34.388Z,1.00
2018-12-21T09:39:12.425Z,1.10
2018-12-21T09:41:49.336Z,1.30
2018-12-21T09:44:23.235Z,2.43
2018-12-21T09:46:59.067Z,2.87
2018-12-21T09:49:37.110Z,1.30
2018-12-21T09:52:10.176Z,1.03
2018-12-21T09:54:44.184Z,1.50
2018-12-21T09:57:19.561Z,1.00
2018-12-21T09:59:52.688Z,1.10
2018-12-21T10:02:35.529Z,1.07
2018-12-21T10:05:15.457Z,1.10
2018-12-21T10:07:48.548Z,1.20
2018-12-21T10:10:24.072Z,1.17
2018-12-21T10:12:58.641Z,1.10
2018-12-21T10:15:31.726Z,1.30
2018-12-21T10:18:06.022Z,1.47
2018-12-21T10:20:39.730Z,1.70
2018-12-21T10:23:13.559Z,1.47
2018-12-21T10:25:47.136Z,1.70
2018-12-21T10:28:23.399Z,1.70
2018-12-21T10:31:00.038Z,1.73
2018-12-21T10:33:37.911Z,2.00
2018-12-21T10:36:11.168Z,2.00
2018-12-21T10:38:44.780Z,2.37
2018-12-21T10:41:18.564Z,2.50
2018-12-21T10:43:57.851Z,2.63
2018-12-21T10:46:31.910Z,2.67
2018-12-21T10:49:05.134Z,3.30
2018-12-21T10:51:38.057Z,2.93
2018-12-21T10:54:14.993Z,2.80
2018-12-21T10:56:50.933Z,3.25
2018-12-21T10:59:25.035Z,3.00
2018-12-21T11:01:58.985Z,3.10
2018-12-21T11:04:32.036Z,3.17
2018-12-21T11:07:07.119Z,2.93
2018-12-21T11:09:41.629Z,3.13
2018-12-21T11:12:16.133Z,3.07
2018-12-21T11:14:49.903Z,2.90
2018-12-21T11:17:43.915Z,3.07
2018-12-21T11:20:17.986Z,2.62
2018-12-21T11:22:51.019Z,2.20
2018-12-21T11:25:25.006Z,1.90
2018-12-21T11:27:58.276Z,2.43
2018-12-21T11:30:31.231Z,2.20
2018-12-21T11:33:04.781Z,2.17
2018-12-21T11:35:37.882Z,2.00
2018-12-21T11:38:11.812Z,2.30
2018-12-21T11:40:46.498Z,1.50
2018-12-21T11:43:20.333Z,1.40
2018-12-21T11:45:56.860Z,1.20
2018-12-21T11:48:34.752Z,1.27
2018-12-21T11:51:07.892Z,1.00
2018-12-21T11:53:44.079Z,0.80
2018-12-21T11:56:17.312Z,0.60
2018-12-21T11:58:51.768Z,0.60
2018-12-21T12:01:25.744Z,0.50
2018-12-21T12:03:59.123Z,0.50
2018-12-21T12:06:32.317Z,0.50
2018-12-21T12:09:07.732Z,0.50
2018-12-21T12:11:43.293Z,0.40
2018-12-21T12:14:18.942Z,0.50
2018-12-21T12:16:54.047Z,0.40
2018-12-21T12:19:28.227Z,0.50
2018-12-21T12:22:01.752Z,0.40
2018-12-21T12:24:35.525Z,0.40
2018-12-21T12:27:10.017Z,0.43
2018-12-21T12:29:46.375Z,0.60
2018-12-21T12:32:20.928Z,0.50
2018-12-21T12:34:55.528Z,0.53
2018-12-21T12:37:29.616Z,0.47
2018-12-21T12:40:06.897Z,0.70
2018-12-21T12:42:42.122Z,0.50
2018-12-21T12:45:17.847Z,0.70
2018-12-21T12:48:00.123Z,0.50
2018-12-21T12:50:35.308Z,0.60
2018-12-21T12:53:10.854Z,0.73
2018-12-21T12:55:47.092Z,0.60
2018-12-21T12:58:20.815Z,0.60
2018-12-21T13:00:54.711Z,0.50
2018-12-21T13:03:31.641Z,0.90
2018-12-21T13:06:07.505Z,0.50
2018-12-21T13:08:40.579Z,0.60
2018-12-21T13:11:16.037Z,0.40
2018-12-21T13:13:49.228Z,0.50
2018-12-21T13:16:23.270Z,0.50
2018-12-21T13:18:57.955Z,0.50
2018-12-21T13:21:30.987Z,0.57
2018-12-21T13:24:04.064Z,0.50
2018-12-21T13:26:38.958Z,0.67
2018-12-21T13:29:12.918Z,0.80
2018-12-21T13:31:46.823Z,0.60
2018-12-21T13:34:21.244Z,0.53
2018-12-21T13:37:16.138Z,0.70
2018-12-21T13:39:51.003Z,0.47
2018-12-21T13:42:29.180Z,0.33
2018-12-21T13:45:04.678Z,0.70
2018-12-21T13:47:42.575Z,0.53
2018-12-21T13:50:17.997Z,0.60
2018-12-21T13:52:54.394Z,0.50
2018-12-21T13:55:29.043Z,0.60
2018-12-21T13:58:02.036Z,0.60
2018-12-21T14:00:36.693Z,0.67
2018-12-21T14:03:10.313Z,1.03
2018-12-21T14:05:45.548Z,0.97
2018-12-21T14:08:19.250Z,0.93
2018-12-21T14:10:55.495Z,0.93
2018-12-21T14:13:28.687Z,1.03
2018-12-21T14:16:06.121Z,1.30
2018-12-21T14:18:39.557Z,1.00
2018-12-21T14:21:16.948Z,1.40
2018-12-21T14:23:50.437Z,1.67
2018-12-21T14:26:26.406Z,1.43
2018-12-21T14:29:04.469Z,1.70
2018-12-21T14:31:42.557Z,2.00
2018-12-21T14:34:22.560Z,1.77
2018-12-21T14:36:59.903Z,2.10
2018-12-21T14:39:35.919Z,2.77
2018-12-21T14:42:12.351Z,2.50
2018-12-21T14:44:47.249Z,2.10
2018-12-21T14:47:24.276Z,2.43
2018-12-21T14:49:59.177Z,2.10
2018-12-21T14:52:33.490Z,2.00
2018-12-21T14:55:08.862Z,2.43
2018-12-21T14:57:52.453Z,2.50
2018-12-21T15:00:31.521Z,2.33
2018-12-21T15:03:06.012Z,3.12
2018-12-21T15:05:41.642Z,2.60
2018-12-21T15:08:16.587Z,2.70
2018-12-21T15:10:50.950Z,2.92
2018-12-21T15:13:24.410Z,3.20
2018-12-21T15:15:57.304Z,3.20
2018-12-21T15:18:56.962Z,3.20
2018-12-21T15:21:45.647Z,3.03
2018-12-21T15:24:19.255Z,3.07
2018-12-21T15:26:55.632Z,3.00
2018-12-21T15:29:31.508Z,3.53
2018-12-21T15:32:07.464Z,2.70
2018-12-21T15:34:41.922Z,2.97
2018-12-21T15:37:15.131Z,3.83
2018-12-21T15:39:48.346Z,3.70
2018-12-21T15:42:24.543Z,3.17
2018-12-21T15:44:58.540Z,3.97
2018-12-21T15:47:31.439Z,3.90
2018-12-21T15:50:11.442Z,3.47
2018-12-21T15:52:44.604Z,4.00
2018-12-21T15:55:18.698Z,3.37
2018-12-21T15:58:02.558Z,4.13
2018-12-21T16:00:38.838Z,4.40
2018-12-21T16:03:11.793Z,4.87
2018-12-21T16:05:46.911Z,4.87
2018-12-21T16:08:23.546Z,4.60
2018-12-21T16:10:57.142Z,4.60
2018-12-21T16:13:36.031Z,4.30
2018-12-21T16:16:10.239Z,4.53
2018-12-21T16:18:43.334Z,5.30
2018-12-21T16:21:18.130Z,5.33
2018-12-21T16:23:53.861Z,5.13
2018-12-21T16:26:27.947Z,5.40
2018-12-21T16:29:01.372Z,5.30
2018-12-21T16:31:36.848Z,5.00
2018-12-21T16:34:11.568Z,5.00
2018-12-21T16:36:47.441Z,5.50
2018-12-21T16:39:21.810Z,6.27
2018-12-21T16:41:56.725Z,5.63
2018-12-21T16:44:34.511Z,5.67
2018-12-21T16:47:10.690Z,4.73
2018-12-21T16:49:46.039Z,5.23
2018-12-21T16:52:19.379Z,5.27
2018-12-21T16:54:54.444Z,5.53
2018-12-21T16:57:28.455Z,5.40
2018-12-21T17:00:03.522Z,5.37
2018-12-21T17:02:37.299Z,6.23
2018-12-21T17:05:11.012Z,5.90
2018-12-21T17:07:43.877Z,6.00
2018-12-21T17:10:23.402Z,6.33
2018-12-21T17:12:57.455Z,6.60
2018-12-21T17:15:31.999Z,6.70
2018-12-21T17:18:09.796Z,6.30
2018-12-21T17:20:43.435Z,7.00
2018-12-21T17:23:18.404Z,6.70
2018-12-21T17:25:55.666Z,7.15
2018-12-21T17:28:30.101Z,7.27
2018-12-21T17:31:09.418Z,6.97
2018-12-21T17:33:42.781Z,6.47
2018-12-21T17:36:18.960Z,6.50
2018-12-21T17:38:52.064Z,6.50
2018-12-21T17:41:29.577Z,6.27
2018-12-21T17:44:03.595Z,6.10
2018-12-21T17:46:45.166Z,6.37
2018-12-21T17:49:20.331Z,6.53
2018-12-21T17:52:03.692Z,6.27
2018-12-21T17:54:56.963Z,6.70
2018-12-21T17:57:33.392Z,6.73
2018-12-21T18:00:20.871Z,8.65
2018-12-21T18:02:59.312Z,7.47
2018-12-21T18:05:41.534Z,7.40
2018-12-21T18:08:21.101Z,6.73
2018-12-21T18:11:02.532Z,7.63
2018-12-21T18:13:39.644Z,7.17
2018-12-21T18:16:15.151Z,6.97
2018-12-21T18:18:52.845Z,7.67
2018-12-21T18:21:35.266Z,7.07
2018-12-21T18:24:09.217Z,7.07
2018-12-21T18:26:46.969Z,8.03
2018-12-21T18:29:33.675Z,7.20
2018-12-21T18:32:38.684Z,7.20
2018-12-21T18:35:19.642Z,6.90
2018-12-21T18:38:14.061Z,8.40
2018-12-21T18:40:55.155Z,7.30
2018-12-21T18:43:42.809Z,6.93
2018-12-21T18:46:24.721Z,6.90
2018-12-21T18:49:00.607Z,8.55
2018-12-21T18:51:37.188Z,8.37
2018-12-21T18:54:10.331Z,9.47
2018-12-21T18:57:16.075Z,11.30
2018-12-21T18:59:49.097Z,7.87
2018-12-21T19:02:24.388Z,7.50
2018-12-21T19:04:57.899Z,7.10
2018-12-21T19:07:31.651Z,6.97
2018-12-21T19:10:10.484Z,7.73
2018-12-21T19:12:47.626Z,7.43
2018-12-21T19:15:23.365Z,7.47
2018-12-21T19:18:01.572Z,8.17
2018-12-21T19:20:34.832Z,7.57
2018-12-21T19:23:09.838Z,7.47
2018-12-21T19:25:44.880Z,7.67
2018-12-21T19:28:18.709Z,7.03
2018-12-21T19:30:51.878Z,6.80
2018-12-21T19:33:30.768Z,7.50
2018-12-21T19:36:04.679Z,8.32
2018-12-21T19:38:38.549Z,6.33
2018-12-21T19:41:21.220Z,7.37
2018-12-21T19:43:55.000Z,7.03
2018-12-21T19:46:31.392Z,9.10
2018-12-21T19:49:06.314Z,7.83
2018-12-21T19:51:41.831Z,7.70
2018-12-21T19:54:22.879Z,7.40
2018-12-21T19:57:13.826Z,6.03
2018-12-21T19:59:48.828Z,7.30
2018-12-21T20:02:23.253Z,6.80
2018-12-21T20:04:58.524Z,7.50
2018-12-21T20:07:33.217Z,7.50
2018-12-21T20:10:08.732Z,6.83
2018-12-21T20:12:47.878Z,7.70
2018-12-21T20:15:43.782Z,7.20
2018-12-21T20:18:47.616Z,6.63
2018-12-21T20:21:26.426Z,6.90
2018-12-21T20:24:03.801Z,7.20
2018-12-21T20:26:44.653Z,6.67
2018-12-21T20:29:41.480Z,8.05
2018-12-21T20:32:17.581Z,7.33
2018-12-21T20:34:55.175Z,7.73
2018-12-21T20:37:31.181Z,7.50
2018-12-21T20:40:13.021Z,7.93
2018-12-21T20:42:46.468Z,7.17
2018-12-21T20:45:20.840Z,7.73
2018-12-21T20:47:56.243Z,7.57
2018-12-21T20:50:31.685Z,7.23
2018-12-21T20:53:06.446Z,7.90
2018-12-21T20:55:40.553Z,8.03
2018-12-21T20:58:56.664Z,7.20
2018-12-21T21:01:30.476Z,8.85
2018-12-21T21:04:04.854Z,6.37
2018-12-21T21:06:40.312Z,8.43
2018-12-21T21:09:14.748Z,8.27
2018-12-21T21:11:55.226Z,7.33
2018-12-21T21:14:30.496Z,6.53
2018-12-21T21:17:04.816Z,7.37
2018-12-21T21:19:45.984Z,7.23
2018-12-21T21:22:20.644Z,6.77
2018-12-21T21:24:53.543Z,7.90
2018-12-21T21:27:32.339Z,6.87
2018-12-21T21:30:18.579Z,7.70
2018-12-21T21:32:52.434Z,7.43
2018-12-21T21:35:39.796Z,8.80
2018-12-21T21:38:14.734Z,7.33
2018-12-21T21:40:56.734Z,7.27
2018-12-21T21:43:33.349Z,7.40
2018-12-21T21:46:08.724Z,7.23
2018-12-21T21:48:43.478Z,6.63
2018-12-21T21:51:16.329Z,6.77
2018-12-21T21:53:49.234Z,7.77
2018-12-21T21:56:22.542Z,8.52
2018-12-21T21:58:56.289Z,7.60
2018-12-21T22:01:31.227Z,7.10
2018-12-21T22:04:05.434Z,9.00
2018-12-21T22:06:38.444Z,8.03
2018-12-21T22:09:11.758Z,7.70
2018-12-21T22:11:44.894Z,8.67
2018-12-21T22:14:17.905Z,6.80
2018-12-21T22:16:51.426Z,7.80
2018-12-21T22:19:25.127Z,8.07
2018-12-21T22:22:00.990Z,6.93
2018-12-21T22:24:36.699Z,7.07
2018-12-21T22:27:11.234Z,7.73
2018-12-21T22:29:44.750Z,7.40
2018-12-21T22:32:19.168Z,7.90
2018-12-21T22:34:56.941Z,8.53
2018-12-21T22:37:31.058Z,7.33
2018-12-21T22:40:08.808Z,7.37
2018-12-21T22:42:43.611Z,7.77
2018-12-21T22:45:21.336Z,8.50
2018-12-21T22:47:58.787Z,7.70
2018-12-21T22:50:34.391Z,8.70
2018-12-21T22:53:10.728Z,6.97
2018-12-21T22:55:44.531Z,7.67
2018-12-21T22:58:19.728Z,7.83
2018-12-21T23:00:56.473Z,8.17
2018-12-21T23:03:30.049Z,8.03
2018-12-21T23:06:03.637Z,7.07
2018-12-21T23:08:41.389Z,8.00
2018-12-21T23:11:29.922Z,7.57
2018-12-21T23:14:10.888Z,7.77
2018-12-21T23:16:46.699Z,7.83
2018-12-21T23:19:22.720Z,7.80
2018-12-21T23:21:57.962Z,8.13
2018-12-21T23:24:31.693Z,8.33
2018-12-21T23:27:05.842Z,8.40
2018-12-21T23:29:44.821Z,7.37
2018-12-21T23:32:17.869Z,8.17
2018-12-21T23:34:54.377Z,7.00
2018-12-21T23:37:27.897Z,7.33
2018-12-21T23:40:02.004Z,7.20
2018-12-21T23:42:35.138Z,8.73
2018-12-21T23:45:09.733Z,7.63
2018-12-21T23:47:45.673Z,6.70
2018-12-21T23:50:18.609Z,7.07
2018-12-21T23:52:56.348Z,6.73
2018-12-21T23:55:29.809Z,7.13
2018-12-21T23:58:13.430Z,7.10
